createdAt,value
2022-12-03T00:01:20.521Z,27.87
2022-12-03T00:03:48.922Z,28.80
2022-12-03T00:06:18.869Z,28.77
2022-12-03T00:08:47.205Z,29.00
2022-12-03T00:11:15.397Z,29.27
2022-12-03T00:13:43.667Z,29.70
2022-12-03T00:16:11.994Z,29.37
2022-12-03T00:18:40.329Z,30.87
2022-12-03T00:21:08.585Z,30.80
2022-12-03T00:23:42.091Z,31.73
2022-12-03T00:26:10.845Z,31.00
2022-12-03T00:28:39.156Z,30.73
2022-12-03T00:31:07.543Z,31.17
2022-12-03T00:33:35.826Z,30.83
2022-12-03T00:36:04.100Z,30.13
2022-12-03T00:38:32.413Z,30.27
2022-12-03T00:41:02.056Z,32.00
2022-12-03T00:43:30.634Z,29.77
2022-12-03T00:45:58.930Z,28.70
2022-12-03T00:48:27.304Z,30.33
2022-12-03T00:50:55.536Z,28.77
2022-12-03T00:53:23.706Z,29.87
2022-12-03T00:55:51.996Z,29.97
2022-12-03T00:58:21.577Z,30.40
2022-12-03T01:00:49.847Z,29.50
2022-12-03T01:03:18.130Z,28.70
2022-12-03T01:05:46.370Z,29.30
2022-12-03T01:08:14.672Z,29.38
2022-12-03T01:10:42.981Z,28.53
2022-12-03T01:13:11.373Z,29.17
2022-12-03T01:15:41.011Z,28.40
2022-12-03T01:18:09.287Z,28.10
2022-12-03T01:20:38.588Z,28.13
2022-12-03T01:23:07.172Z,28.30
2022-12-03T01:25:35.463Z,31.13
2022-12-03T01:28:03.721Z,29.43
2022-12-03T01:30:52.098Z,28.53
2022-12-03T01:33:20.770Z,29.77
2022-12-03T01:35:49.002Z,30.57
2022-12-03T01:38:17.254Z,29.77
2022-12-03T01:40:46.080Z,31.23
2022-12-03T01:43:14.342Z,29.10
2022-12-03T01:45:42.580Z,31.87
2022-12-03T01:48:13.651Z,30.87
2022-12-03T01:50:43.967Z,31.03
2022-12-03T01:53:18.206Z,29.45
2022-12-03T01:55:48.896Z,28.97
2022-12-03T01:58:18.299Z,29.10
2022-12-03T02:00:46.513Z,29.27
2022-12-03T02:03:22.426Z,29.17
2022-12-03T02:05:52.134Z,28.67
2022-12-03T02:08:30.318Z,27.70
2022-12-03T02:11:00.285Z,29.03
2022-12-03T02:13:28.586Z,29.88
2022-12-03T02:15:57.919Z,31.27
2022-12-03T02:18:26.320Z,29.77
2022-12-03T02:21:06.546Z,29.60
2022-12-03T02:23:41.039Z,30.20
2022-12-03T02:26:10.873Z,30.87
2022-12-03T02:28:39.332Z,30.95
2022-12-03T02:31:08.190Z,30.13
2022-12-03T02:33:36.617Z,30.50
2022-12-03T02:36:05.974Z,30.03
2022-12-03T02:38:35.835Z,29.80
2022-12-03T02:41:09.062Z,29.90
2022-12-03T02:43:38.198Z,30.30
2022-12-03T02:46:09.007Z,31.00
2022-12-03T02:48:39.961Z,30.10
2022-12-03T02:51:11.732Z,30.17
2022-12-03T02:53:44.500Z,31.53
2022-12-03T02:56:16.395Z,29.90
2022-12-03T02:58:48.537Z,31.20
2022-12-03T03:01:17.293Z,29.23
2022-12-03T03:03:47.199Z,30.00
2022-12-03T03:06:16.804Z,31.83
2022-12-03T03:08:46.802Z,28.90
2022-12-03T03:11:15.084Z,29.67
2022-12-03T03:13:45.148Z,30.03
2022-12-03T03:16:13.483Z,29.90
2022-12-03T03:18:41.834Z,29.50
2022-12-03T03:21:10.381Z,30.47
2022-12-03T03:23:38.618Z,29.67
2022-12-03T03:26:09.896Z,30.03
2022-12-03T03:28:41.069Z,30.60
2022-12-03T03:31:13.284Z,30.10
2022-12-03T03:33:43.322Z,30.67
2022-12-03T03:36:12.161Z,30.52
2022-12-03T03:41:14.374Z,30.53
2022-12-03T03:43:45.142Z,29.93
2022-12-03T03:46:15.807Z,30.67
2022-12-03T03:48:44.886Z,29.87
2022-12-03T03:51:14.312Z,30.30
2022-12-03T03:53:45.392Z,31.33
2022-12-03T03:56:14.129Z,29.97
2022-12-03T03:58:42.353Z,31.00
2022-12-03T04:01:12.749Z,31.43
2022-12-03T04:03:42.879Z,29.50
2022-12-03T04:06:12.064Z,29.08
2022-12-03T04:08:40.275Z,29.17
2022-12-03T04:11:25.850Z,30.47
2022-12-03T04:13:54.098Z,30.07
2022-12-03T04:16:22.368Z,30.13
2022-12-03T04:18:52.116Z,29.40
2022-12-03T04:21:46.125Z,31.52
2022-12-03T04:24:14.376Z,29.30
2022-12-03T04:27:05.481Z,30.73
2022-12-03T04:29:33.790Z,30.67
2022-12-03T04:32:21.225Z,29.37
2022-12-03T04:35:08.393Z,30.07
2022-12-03T04:37:36.737Z,30.80
2022-12-03T04:40:26.589Z,30.87
2022-12-03T04:42:54.857Z,29.52
2022-12-03T04:45:23.077Z,31.97
2022-12-03T04:47:51.310Z,31.50
2022-12-03T04:50:20.872Z,30.77
2022-12-03T04:52:49.155Z,30.93
2022-12-03T04:55:17.513Z,30.10
2022-12-03T04:57:45.787Z,30.63
2022-12-03T05:00:15.961Z,28.67
2022-12-03T05:02:44.376Z,30.02
2022-12-03T05:05:12.658Z,30.57
2022-12-03T05:07:42.703Z,32.17
2022-12-03T05:10:12.779Z,30.65
2022-12-03T05:12:41.032Z,32.92
2022-12-03T05:15:10.125Z,31.43
2022-12-03T05:17:38.398Z,31.23
2022-12-03T05:20:26.075Z,32.17
2022-12-03T05:22:55.677Z,31.57
2022-12-03T05:25:23.914Z,31.73
2022-12-03T05:27:52.157Z,31.23
2022-12-03T05:30:20.504Z,32.37
2022-12-03T05:32:48.953Z,31.83
2022-12-03T05:35:17.430Z,32.73
2022-12-03T05:37:45.682Z,31.83
2022-12-03T05:40:16.343Z,32.77
2022-12-03T05:43:01.289Z,31.27
2022-12-03T05:45:32.118Z,32.80
2022-12-03T05:48:01.531Z,31.50
2022-12-03T05:50:33.141Z,31.40
2022-12-03T05:53:17.320Z,29.73
2022-12-03T05:55:46.983Z,30.85
2022-12-03T05:58:15.187Z,31.25
2022-12-03T06:00:43.417Z,30.53
2022-12-03T06:03:12.065Z,32.30
2022-12-03T06:05:40.413Z,30.37
2022-12-03T06:08:08.666Z,31.43
2022-12-03T06:10:37.529Z,32.27
2022-12-03T06:13:07.159Z,32.57
2022-12-03T06:15:38.915Z,31.10
2022-12-03T06:18:11.663Z,31.27
2022-12-03T06:20:40.029Z,30.90
2022-12-03T06:23:08.264Z,31.23
2022-12-03T06:25:36.517Z,31.47
2022-12-03T06:28:07.330Z,32.50
2022-12-03T06:30:35.929Z,30.63
2022-12-03T06:33:04.210Z,31.17
2022-12-03T06:35:33.053Z,30.77
2022-12-03T06:38:01.261Z,32.23
2022-12-03T06:40:29.620Z,32.63
2022-12-03T06:42:57.837Z,32.47
2022-12-03T06:45:27.408Z,31.27
2022-12-03T06:47:55.609Z,31.37
2022-12-03T06:50:23.836Z,32.07
2022-12-03T06:52:52.081Z,32.17
2022-12-03T06:55:20.253Z,32.07
2022-12-03T06:57:48.478Z,35.07
2022-12-03T07:00:17.404Z,31.30
2022-12-03T07:02:47.090Z,34.07
2022-12-03T07:05:15.471Z,30.95
2022-12-03T07:07:43.689Z,32.80
2022-12-03T07:10:14.802Z,32.90
2022-12-03T07:12:43.135Z,29.73
2022-12-03T07:15:12.060Z,31.93
2022-12-03T07:17:40.438Z,31.87
2022-12-03T07:20:11.613Z,31.90
2022-12-03T07:22:40.177Z,33.30
2022-12-03T07:25:09.631Z,34.50
2022-12-03T07:27:37.863Z,33.50
2022-12-03T07:30:08.097Z,32.73
2022-12-03T07:32:36.394Z,33.40
2022-12-03T07:35:07.317Z,33.57
2022-12-03T07:37:37.012Z,33.97
2022-12-03T07:40:07.012Z,33.15
2022-12-03T07:42:35.283Z,34.85
2022-12-03T07:45:03.667Z,35.00
2022-12-03T07:47:32.032Z,34.80
2022-12-03T07:50:00.241Z,35.07
2022-12-03T07:52:28.554Z,35.00
2022-12-03T07:54:58.125Z,34.53
2022-12-03T07:57:26.374Z,34.73
2022-12-03T07:59:54.569Z,35.43
2022-12-03T08:02:22.869Z,36.17
2022-12-03T08:04:51.347Z,35.93
2022-12-03T08:07:19.721Z,38.10
2022-12-03T08:09:47.962Z,35.20
2022-12-03T08:12:39.946Z,35.27
2022-12-03T08:15:14.919Z,38.00
2022-12-03T08:17:44.361Z,36.90
2022-12-03T08:20:16.845Z,37.13
2022-12-03T08:22:47.499Z,36.73
2022-12-03T08:25:22.531Z,35.17
2022-12-03T08:27:56.021Z,38.17
2022-12-03T08:30:24.931Z,37.50
2022-12-03T08:32:53.497Z,35.63
2022-12-03T08:35:26.184Z,36.87
2022-12-03T08:38:03.053Z,35.30
2022-12-03T08:40:37.609Z,37.47
2022-12-03T08:43:16.084Z,38.80
2022-12-03T08:45:44.377Z,37.90
2022-12-03T08:48:34.457Z,37.10
2022-12-03T08:51:10.516Z,36.20
2022-12-03T08:53:45.895Z,37.87
2022-12-03T08:56:24.045Z,37.27
2022-12-03T08:58:57.222Z,36.87
2022-12-03T09:01:40.434Z,37.13
2022-12-03T09:04:28.914Z,38.03
2022-12-03T09:06:58.439Z,38.23
2022-12-03T09:09:27.423Z,38.40
2022-12-03T09:11:56.384Z,37.80
2022-12-03T09:14:26.133Z,35.30
2022-12-03T09:16:55.846Z,34.65
2022-12-03T09:19:25.348Z,34.20
2022-12-03T09:21:53.920Z,36.10
2022-12-03T09:24:22.804Z,34.60
2022-12-03T09:26:51.422Z,36.90
2022-12-03T09:29:19.703Z,39.33
2022-12-03T09:31:49.315Z,38.83
2022-12-03T09:34:17.738Z,36.33
2022-12-03T09:36:46.007Z,37.27
2022-12-03T09:39:14.317Z,36.53
2022-12-03T09:41:44.144Z,36.57
2022-12-03T09:44:17.552Z,36.40
2022-12-03T09:46:49.371Z,35.13
2022-12-03T09:49:19.768Z,35.90
2022-12-03T09:51:48.398Z,35.50
2022-12-03T09:54:24.936Z,36.97
2022-12-03T09:56:54.854Z,38.07
2022-12-03T09:59:24.770Z,36.08
2022-12-03T10:01:55.494Z,37.03
2022-12-03T10:04:23.975Z,36.63
2022-12-03T10:06:52.963Z,36.07
2022-12-03T10:09:30.300Z,36.20
2022-12-03T10:12:00.305Z,36.33
2022-12-03T10:14:29.314Z,38.67
2022-12-03T10:16:59.908Z,37.57
2022-12-03T10:19:32.598Z,37.92
2022-12-03T10:22:01.107Z,37.73
2022-12-03T10:24:31.548Z,38.67
2022-12-03T10:27:01.655Z,37.88
2022-12-03T10:29:34.394Z,38.30
2022-12-03T10:32:07.177Z,40.17
2022-12-03T10:34:38.120Z,40.10
2022-12-03T10:37:16.325Z,40.83
2022-12-03T10:39:59.994Z,39.70
2022-12-03T10:42:30.519Z,41.03
2022-12-03T10:47:40.164Z,42.30
2022-12-03T10:50:18.535Z,43.95
2022-12-03T10:52:47.935Z,39.77
2022-12-03T10:55:17.349Z,39.23
2022-12-03T10:57:47.055Z,40.78
2022-12-03T11:00:19.513Z,38.90
2022-12-03T11:02:54.828Z,38.33
2022-12-03T11:05:28.060Z,37.43
2022-12-03T11:07:57.458Z,38.10
2022-12-03T11:10:26.285Z,38.03
2022-12-03T11:13:46.455Z,38.13
2022-12-03T11:16:16.076Z,37.47
2022-12-03T11:19:03.530Z,37.83
2022-12-03T11:21:32.325Z,38.40
2022-12-03T11:24:20.547Z,39.43
2022-12-03T11:27:20.629Z,39.13
2022-12-03T11:29:56.067Z,39.65
2022-12-03T11:33:21.158Z,39.77
2022-12-03T11:36:15.463Z,38.17
2022-12-03T11:38:56.394Z,40.07
2022-12-03T11:41:31.911Z,39.80
2022-12-03T11:44:33.690Z,42.33
2022-12-03T11:47:15.729Z,38.40
2022-12-03T11:49:49.137Z,39.93
2022-12-03T11:52:27.658Z,40.03
2022-12-03T11:55:02.253Z,40.10
2022-12-03T11:57:37.830Z,42.73
2022-12-03T12:00:22.973Z,42.17
2022-12-03T12:02:52.952Z,42.20
2022-12-03T12:05:26.476Z,43.22
2022-12-03T12:07:57.031Z,42.17
2022-12-03T12:10:45.131Z,40.03
2022-12-03T12:13:49.942Z,37.53
2022-12-03T12:16:45.977Z,38.83
2022-12-03T12:19:39.958Z,39.87
2022-12-03T12:22:36.696Z,41.77
2022-12-03T12:25:36.080Z,42.27
2022-12-03T12:28:04.469Z,42.00
2022-12-03T12:30:32.632Z,41.60
2022-12-03T12:33:13.012Z,41.80
2022-12-03T12:35:42.875Z,42.25
2022-12-03T12:38:21.937Z,39.88
2022-12-03T12:40:52.182Z,39.43
2022-12-03T12:43:25.006Z,40.85
2022-12-03T12:45:55.570Z,38.20
2022-12-03T12:48:27.424Z,38.97
2022-12-03T12:51:02.186Z,37.97
2022-12-03T12:53:33.822Z,35.27
2022-12-03T12:56:14.440Z,35.67
2022-12-03T13:01:21.560Z,36.03
2022-12-03T13:03:53.233Z,35.40
2022-12-03T13:06:27.585Z,37.37
2022-12-03T13:08:56.173Z,39.40
2022-12-03T13:11:39.511Z,39.03
2022-12-03T13:14:17.185Z,39.73
2022-12-03T13:16:46.210Z,41.60
2022-12-03T13:19:26.493Z,42.77
2022-12-03T13:21:56.234Z,43.05
2022-12-03T13:24:33.240Z,41.47
2022-12-03T13:27:22.947Z,41.80
2022-12-03T13:29:56.697Z,39.37
2022-12-03T13:32:30.943Z,42.53
2022-12-03T13:35:05.557Z,40.73
2022-12-03T13:37:34.039Z,40.20
2022-12-03T13:40:21.202Z,40.03
2022-12-03T13:42:52.525Z,41.57
2022-12-03T13:45:42.015Z,39.70
2022-12-03T13:48:21.058Z,42.67
2022-12-03T13:50:49.600Z,44.37
2022-12-03T13:53:23.441Z,40.73
2022-12-03T13:55:55.277Z,41.20
2022-12-03T13:58:24.847Z,38.67
2022-12-03T14:00:53.207Z,40.43
2022-12-03T14:03:23.376Z,40.43
2022-12-03T14:05:51.653Z,39.60
2022-12-03T14:08:20.187Z,40.87
2022-12-03T14:10:48.563Z,39.23
2022-12-03T14:13:16.799Z,38.63
2022-12-03T14:15:46.392Z,36.97
2022-12-03T14:18:14.670Z,33.83
2022-12-03T14:20:42.897Z,36.00
2022-12-03T14:23:11.233Z,34.67
2022-12-03T14:25:39.483Z,33.77
2022-12-03T14:28:09.518Z,34.90
2022-12-03T14:30:37.837Z,34.08
2022-12-03T14:33:07.453Z,34.73
2022-12-03T14:35:37.158Z,36.50
2022-12-03T14:38:05.416Z,32.07
2022-12-03T14:40:33.695Z,31.30
2022-12-03T14:43:01.917Z,31.37
2022-12-03T14:45:30.593Z,30.37
2022-12-03T14:47:58.906Z,29.30
2022-12-03T14:50:28.517Z,28.70
2022-12-03T14:52:56.836Z,28.92
2022-12-03T14:55:25.184Z,29.43
2022-12-03T14:57:53.402Z,29.43
2022-12-03T15:00:23.777Z,27.83
2022-12-03T15:02:52.209Z,29.07
2022-12-03T15:05:28.034Z,30.00
2022-12-03T15:07:58.330Z,28.57
2022-12-03T15:10:26.543Z,28.13
2022-12-03T15:12:54.739Z,31.90
2022-12-03T15:15:22.987Z,31.33
2022-12-03T15:17:51.169Z,34.17
2022-12-03T15:20:19.939Z,34.23
2022-12-03T15:22:48.215Z,34.43
2022-12-03T15:25:24.225Z,35.23
2022-12-03T15:27:52.548Z,37.20
2022-12-03T15:30:21.357Z,36.83
2022-12-03T15:32:49.614Z,36.90
2022-12-03T15:35:18.619Z,39.47
2022-12-03T15:37:47.090Z,39.33
2022-12-03T15:40:17.173Z,38.57
2022-12-03T15:42:45.456Z,39.83
2022-12-03T15:45:15.446Z,37.50
2022-12-03T15:47:44.010Z,40.38
2022-12-03T15:50:13.469Z,38.73
2022-12-03T15:52:41.931Z,39.63
2022-12-03T15:55:11.165Z,39.30
2022-12-03T15:57:40.816Z,38.03
2022-12-03T16:00:12.573Z,37.83
2022-12-03T16:02:40.939Z,38.30
2022-12-03T16:05:12.928Z,38.53
2022-12-03T16:07:41.412Z,38.50
2022-12-03T16:10:12.217Z,38.87
2022-12-03T16:12:41.842Z,37.87
2022-12-03T16:15:10.915Z,37.50
2022-12-03T16:17:39.157Z,39.97
2022-12-03T16:20:09.294Z,39.20
2022-12-03T16:22:37.496Z,39.92
2022-12-03T16:25:07.168Z,37.73
2022-12-03T16:27:37.036Z,39.10
2022-12-03T16:30:09.402Z,38.30
2022-12-03T16:32:37.699Z,39.17
2022-12-03T16:35:06.806Z,41.07
2022-12-03T16:37:35.093Z,39.30
2022-12-03T16:40:03.410Z,41.47
2022-12-03T16:42:31.693Z,40.17
2022-12-03T16:45:22.861Z,38.73
2022-12-03T16:47:52.461Z,38.43
2022-12-03T16:50:27.587Z,38.88
2022-12-03T16:52:57.965Z,38.53
2022-12-03T16:55:26.456Z,40.87
2022-12-03T16:57:54.755Z,38.13
2022-12-03T17:00:23.229Z,39.83
2022-12-03T17:02:52.953Z,38.40
2022-12-03T17:05:21.422Z,37.97
2022-12-03T17:07:49.749Z,38.90
2022-12-03T17:10:18.275Z,36.37
2022-12-03T17:13:10.063Z,37.67
2022-12-03T17:15:35.046Z,37.67
2022-12-03T17:18:05.251Z,38.10
2022-12-03T17:20:34.549Z,38.20
2022-12-03T17:23:03.434Z,37.47
2022-12-03T17:25:32.067Z,35.77
2022-12-03T17:28:00.352Z,35.57
2022-12-03T17:30:28.653Z,35.77
2022-12-03T17:32:57.817Z,33.33
2022-12-03T17:35:28.518Z,34.50
2022-12-03T17:37:56.935Z,34.03
2022-12-03T17:40:25.163Z,33.60
2022-12-03T17:42:53.441Z,32.13
2022-12-03T17:45:21.657Z,33.00
2022-12-03T17:47:49.884Z,32.83
2022-12-03T17:50:18.181Z,32.03
2022-12-03T17:52:47.762Z,32.40
2022-12-03T17:55:26.123Z,33.13
2022-12-03T17:57:56.278Z,31.50
2022-12-03T18:00:24.782Z,32.63
2022-12-03T18:02:53.055Z,33.63
2022-12-03T18:05:22.974Z,32.10
2022-12-03T18:07:53.070Z,31.48
2022-12-03T18:10:21.355Z,31.63
2022-12-03T18:12:49.787Z,35.10
2022-12-03T18:15:18.630Z,34.93
2022-12-03T18:17:49.829Z,35.30
2022-12-03T18:20:18.475Z,36.77
2022-12-03T18:22:46.739Z,36.37
2022-12-03T18:25:18.006Z,37.40
2022-12-03T18:27:47.600Z,36.37
2022-12-03T18:30:16.320Z,36.83
2022-12-03T18:32:44.613Z,40.07
2022-12-03T18:35:13.041Z,38.10
2022-12-03T18:37:41.472Z,38.97
2022-12-03T18:40:20.096Z,41.00
2022-12-03T18:42:48.653Z,40.63
2022-12-03T18:45:17.352Z,40.43
2022-12-03T18:47:46.410Z,40.53
2022-12-03T18:50:14.883Z,43.57
2022-12-03T18:52:43.241Z,40.23
2022-12-03T18:55:19.661Z,42.77
2022-12-03T18:57:47.923Z,43.53
2022-12-03T19:00:17.514Z,41.87
2022-12-03T19:05:35.737Z,41.53
2022-12-03T19:08:12.484Z,41.95
2022-12-03T19:10:43.470Z,42.93
2022-12-03T19:13:12.079Z,41.77
2022-12-03T19:15:41.098Z,42.90
2022-12-03T19:18:09.487Z,41.37
2022-12-03T19:20:41.830Z,42.57
2022-12-03T19:23:10.823Z,42.43
2022-12-03T19:25:39.095Z,40.50
2022-12-03T19:28:09.334Z,42.43
2022-12-03T19:30:37.608Z,44.08
2022-12-03T19:33:05.889Z,41.90
2022-12-03T19:35:40.128Z,43.17
2022-12-03T19:38:08.457Z,39.53
2022-12-03T19:40:36.782Z,40.63
2022-12-03T19:43:05.102Z,38.73
2022-12-03T19:45:41.592Z,37.97
2022-12-03T19:48:09.913Z,39.87
2022-12-03T19:50:38.163Z,41.40
2022-12-03T19:53:06.475Z,40.53
2022-12-03T19:55:36.725Z,41.80
2022-12-03T19:58:04.999Z,43.83
2022-12-03T20:00:35.648Z,44.73
2022-12-03T20:03:04.393Z,40.97
2022-12-03T20:05:37.965Z,43.50
2022-12-03T20:08:08.977Z,41.57
2022-12-03T20:10:37.644Z,42.70
2022-12-03T20:13:06.260Z,45.63
2022-12-03T20:15:37.829Z,41.83
2022-12-03T20:18:06.371Z,41.20
2022-12-03T20:20:34.623Z,41.80
2022-12-03T20:23:04.351Z,41.45
2022-12-03T20:25:32.684Z,43.17
2022-12-03T20:28:00.898Z,40.17
2022-12-03T20:30:29.243Z,39.93
2022-12-03T20:32:58.811Z,41.37
2022-12-03T20:35:27.140Z,38.47
2022-12-03T20:37:55.364Z,39.40
2022-12-03T20:40:23.625Z,41.40
2022-12-03T20:42:52.606Z,41.70
2022-12-03T20:45:20.961Z,43.73
2022-12-03T20:47:49.895Z,44.47
2022-12-03T20:50:19.727Z,47.47
2022-12-03T20:53:09.336Z,49.00
2022-12-03T20:55:36.235Z,43.90
2022-12-03T20:58:04.923Z,45.40
2022-12-03T21:00:33.305Z,44.90
2022-12-03T21:03:01.566Z,45.83
2022-12-03T21:05:31.294Z,43.27
2022-12-03T21:07:59.567Z,47.70
2022-12-03T21:10:36.957Z,45.87
2022-12-03T21:13:05.229Z,47.00
2022-12-03T21:15:33.432Z,45.27
2022-12-03T21:18:01.788Z,43.87
2022-12-03T21:20:31.418Z,45.23
2022-12-03T21:22:59.689Z,43.65
2022-12-03T21:25:28.040Z,47.20
2022-12-03T21:27:56.365Z,44.53
2022-12-03T21:30:24.648Z,42.93
2022-12-03T21:32:52.984Z,44.20
2022-12-03T21:35:21.165Z,43.80
2022-12-03T21:37:51.637Z,43.60
2022-12-03T21:42:48.545Z,43.53
2022-12-03T21:45:17.311Z,42.30
2022-12-03T21:47:49.291Z,41.83
2022-12-03T21:50:17.946Z,45.57
2022-12-03T21:52:46.153Z,45.33
2022-12-03T21:55:15.920Z,44.97
2022-12-03T21:57:44.339Z,46.55
2022-12-03T22:00:14.483Z,44.87
2022-12-03T22:02:42.781Z,43.92
2022-12-03T22:05:12.746Z,44.33
2022-12-03T22:07:41.635Z,43.10
2022-12-03T22:10:12.594Z,43.53
2022-12-03T22:12:42.288Z,43.83
2022-12-03T22:15:18.189Z,44.63
2022-12-03T22:17:47.442Z,42.17
2022-12-03T22:20:16.266Z,42.73
2022-12-03T22:22:44.536Z,42.50
2022-12-03T22:25:12.824Z,44.30
2022-12-03T22:27:42.496Z,43.53
2022-12-03T22:30:11.477Z,43.85
2022-12-03T22:32:39.776Z,43.43
2022-12-03T22:35:09.166Z,43.83
2022-12-03T22:37:37.387Z,44.27
2022-12-03T22:40:07.087Z,42.83
2022-12-03T22:42:35.345Z,42.50
2022-12-03T22:45:06.020Z,44.77
2022-12-03T22:47:34.272Z,45.87
2022-12-03T22:50:02.534Z,44.00
2022-12-03T22:52:31.671Z,44.03
2022-12-03T22:54:59.892Z,44.20
2022-12-03T22:57:28.193Z,44.67
2022-12-03T22:59:56.729Z,45.30
2022-12-03T23:02:26.621Z,44.53
2022-12-03T23:04:56.721Z,43.20
2022-12-03T23:07:24.991Z,45.50
2022-12-03T23:09:53.580Z,44.77
2022-12-03T23:12:22.317Z,45.13
2022-12-03T23:14:55.140Z,45.07
2022-12-03T23:17:23.439Z,43.53
2022-12-03T23:19:53.511Z,42.47
2022-12-03T23:22:22.003Z,45.80
2022-12-03T23:24:50.232Z,45.20
2022-12-03T23:27:18.453Z,45.67
2022-12-03T23:29:46.663Z,44.17
2022-12-03T23:32:14.932Z,43.43
2022-12-03T23:34:43.211Z,43.97
2022-12-03T23:37:12.958Z,45.00
2022-12-03T23:39:41.488Z,44.33
2022-12-03T23:42:09.738Z,46.47
2022-12-03T23:44:37.993Z,45.33
2022-12-03T23:47:06.392Z,45.13
2022-12-03T23:49:34.775Z,44.83
2022-12-03T23:52:03.061Z,46.87
2022-12-03T23:54:32.716Z,46.93
2022-12-03T23:57:00.958Z,46.22
2022-12-03T23:59:29.264Z,46.17
